• Join FlightAware (Why Join?)
  • Login
  • US Flag 
07:13PM EDT


 

Airport Tracker/Info


-or-


 

Live Flight TrackerFlight Track Log ✈ KAP66 ✈ 30-Apr-2013 ✈ KBOS - KACK

Flight Track Log - Related Links

Times and Time Zones

All times are in EDT time to prevent confusion due to time zone crossing. See the KAP66 flight status page for this flight to view local times or setup timezone preferences in your user account.

Time Position Orientation Groundspeed Altitude Reporting Facility
EDT Latitude Longitude Course Direction KTS MPH feet Rate Location/Type
04:19PM 42.3333 -70.9500 125° Southeast 107 123 1,100  Level KA90
04:20PM 42.3167 -70.9167 124° Southeast 118 136 1,600 420 Climbing KA90
04:21PM 42.3000 -70.8833 124° Southeast 129 148 2,100 480 Climbing KA90
04:22PM 42.2667 -70.8667 160° South 132 152 2,600 420 Climbing KA90
04:23PM 42.2333 -70.8333 143° Southeast 136 157 3,000 420 Climbing KA90
04:24PM 42.2000 -70.8167 160° South 142 163 3,500 420 Climbing KA90
04:25PM 42.1500 -70.7833 154° Southeast 144 166 4,000 420 Climbing KA90
04:27PM 42.1133 -70.7533 116° Southeast  Level Estimated
04:34PM 41.8796 -70.5628 114° Southeast  Level Estimated
04:35PM 41.8925 -70.5133 71° East  Level FlightAware Approximate
04:36PM 41.9054 -70.4639 71° East  Level FlightAware Approximate
04:37PM 41.9183 -70.4143 71° East  Level FlightAware Approximate
04:38PM 41.9312 -70.3648 71° East  Level FlightAware Approximate
04:39PM 41.9440 -70.3153 71° East  Level FlightAware Approximate
04:40PM 41.9569 -70.2657 71° East  Level FlightAware Approximate
04:41PM 41.9187 -70.2544 180° South  Level Estimated
04:42PM 41.8841 -70.2303 153° Southeast  Level FlightAware Approximate
04:43PM 41.8494 -70.2061 153° Southeast  Level FlightAware Approximate
04:44PM 41.8148 -70.1821 153° Southeast  Level FlightAware Approximate
04:45PM 41.7801 -70.1580 153° Southeast  Level FlightAware Approximate
04:46PM 41.7454 -70.1339 153° Southeast  Level FlightAware Approximate
04:47PM 41.7108 -70.1099 153° Southeast  Level FlightAware Approximate
04:48PM 41.6761 -70.0859 153° Southeast  Level FlightAware Approximate
04:49PM 41.6414 -70.0619 153° Southeast  Level FlightAware Approximate
04:50PM 41.6067 -70.0380 153° Southeast  Level FlightAware Approximate
04:51PM 41.5995 -70.0334 189° South  Level FlightAware Approximate
04:52PM 41.5609 -70.0412 189° South  Level FlightAware Approximate
04:53PM 41.5223 -70.0489 189° South  Level FlightAware Approximate
04:54PM 41.4833 -70.0500 180° South  Level FlightAware Approximate
04:55PM 41.4443 -70.0500 180° South  Level FlightAware Approximate
04:56PM 41.4052 -70.0500 180° South  Level FlightAware Approximate
04:57PM 41.3662 -70.0500 180° South  Level FlightAware Approximate
04:58PM 41.3271 -70.0500 180° South  Level FlightAware Approximate